Time;durP1;ratioP1;P1;durP2;ratioP2;P2;SDS_P1;SDS_P2;PMS_P1;PMS_P2;Temp;Humidity;BMP_temperature;BMP_pressure;BME280_temperature;BME280_humidity;BME280_pressure;Samples;Min_cycle;Max_cycle;Signal;HPM_P1;HPM_P2
2023/09/08 00:00:40;;;;;;;11.50;7.57;;;15.50;99.90;;;;;;5029761;28;20505;-52
2023/09/08 00:03:06;;;;;;;7.63;6.90;;;15.50;99.90;;;;;;5028329;28;20494;-51
2023/09/08 00:05:33;;;;;;;16.40;6.30;;;15.50;99.90;;;;;;5033500;28;20955;-51
2023/09/08 00:07:59;;;;;;;8.03;7.23;;;15.40;99.90;;;;;;5031696;28;20513;-52
2023/09/08 00:10:26;;;;;;;7.50;6.70;;;15.40;99.90;;;;;;5032677;28;20542;-52
2023/09/08 00:12:54;;;;;;;7.90;7.10;;;15.40;99.20;;;;;;5030939;28;20542;-52
2023/09/08 00:15:20;;;;;;;7.77;6.23;;;15.40;98.40;;;;;;5030294;28;20505;-51
2023/09/08 00:17:47;;;;;;;12.53;6.60;;;15.40;97.70;;;;;;5031880;28;20443;-51
2023/09/08 00:20:15;;;;;;;7.17;5.90;;;15.40;99.90;;;;;;5027541;28;20837;-52
2023/09/08 00:22:41;;;;;;;7.70;6.10;;;15.40;98.40;;;;;;5023035;28;20466;-53
2023/09/08 00:25:08;;;;;;;6.90;6.23;;;15.40;97.80;;;;;;5035097;28;20885;-52
2023/09/08 00:27:35;;;;;;;7.87;7.10;;;15.30;97.40;;;;;;5028631;28;21079;-51
2023/09/08 00:30:03;;;;;;;7.23;6.53;;;15.40;97.30;;;;;;5028394;28;20483;-52
2023/09/08 00:32:30;;;;;;;13.50;6.67;;;15.30;98.30;;;;;;5029603;28;20890;-52
2023/09/08 00:34:56;;;;;;;7.87;6.33;;;15.30;97.30;;;;;;5032141;28;20447;-52
2023/09/08 00:37:23;;;;;;;6.80;6.13;;;15.30;97.60;;;;;;5026181;28;20884;-53
2023/09/08 00:39:50;;;;;;;6.97;6.37;;;15.30;98.50;;;;;;5031898;28;20509;-51
2023/09/08 00:42:16;;;;;;;9.17;7.10;;;15.20;95.10;;;;;;5033019;28;20530;-52
2023/09/08 00:44:43;;;;;;;8.40;6.80;;;15.20;94.90;;;;;;5032230;28;21076;-53
2023/09/08 00:47:11;;;;;;;15.53;6.70;;;15.20;96.90;;;;;;5029429;28;20570;-53
2023/09/08 00:49:37;;;;;;;7.50;6.80;;;15.20;98.40;;;;;;5028995;28;20530;-52
2023/09/08 00:52:05;;;;;;;7.30;6.50;;;15.20;97.80;;;;;;5039955;28;21011;-52
2023/09/08 00:54:31;;;;;;;16.53;6.90;;;15.20;94.20;;;;;;5024898;28;20490;-52
2023/09/08 00:56:58;;;;;;;9.70;6.90;;;15.20;95.20;;;;;;5032049;28;20894;-51
2023/09/08 00:59:25;;;;;;;7.00;6.40;;;15.10;93.70;;;;;;5030670;28;21003;-52
2023/09/08 01:01:52;;;;;;;9.03;6.33;;;15.10;89.60;;;;;;5031435;28;20474;-52
2023/09/08 01:04:21;;;;;;;7.67;6.90;;;15.10;88.40;;;;;;5025885;28;20487;-53
2023/09/08 01:06:48;;;;;;;12.93;7.40;;;15.00;86.40;;;;;;5018302;28;20550;-51
2023/09/08 01:09:15;;;;;;;9.00;7.40;;;15.00;85.70;;;;;;5025920;28;20570;-52
2023/09/08 01:11:42;;;;;;;10.63;6.93;;;15.00;85.90;;;;;;5030168;28;20541;-51
2023/09/08 01:14:09;;;;;;;7.80;6.90;;;14.90;86.60;;;;;;5031376;28;21177;-51
2023/09/08 01:16:37;;;;;;;7.93;7.13;;;14.90;84.50;;;;;;5028645;28;20501;-50
2023/09/08 01:19:05;;;;;;;8.87;6.80;;;14.90;82.30;;;;;;5023912;28;20481;-51
2023/09/08 01:21:58;;;;;;;8.20;7.40;;;14.90;79.40;;;;;;5031325;28;20538;-52
2023/09/08 01:24:51;;;;;;;7.43;6.80;;;14.80;76.90;;;;;;5031314;28;20482;-51
2023/09/08 01:27:20;;;;;;;7.10;6.40;;;14.80;75.10;;;;;;5035459;28;20484;-51
2023/09/08 01:29:48;;;;;;;7.93;7.10;;;14.70;72.90;;;;;;5028219;28;20502;-51
2023/09/08 01:32:15;;;;;;;9.37;6.67;;;14.80;73.00;;;;;;5026591;28;20613;-52
2023/09/08 01:34:41;;;;;;;8.27;7.00;;;14.70;74.10;;;;;;5029038;28;20585;-52
2023/09/08 01:37:08;;;;;;;7.43;6.70;;;14.70;73.40;;;;;;5033253;28;20473;-52
2023/09/08 01:39:35;;;;;;;9.17;6.60;;;14.70;73.70;;;;;;5030948;28;20506;-52
2023/09/08 01:42:02;;;;;;;6.63;6.03;;;14.60;76.60;;;;;;5032411;28;20832;-51
2023/09/08 01:44:30;;;;;;;13.17;6.90;;;14.70;71.40;;;;;;5028270;28;20541;-52
2023/09/08 01:46:57;;;;;;;9.17;6.67;;;14.60;68.00;;;;;;5028890;28;20486;-52
2023/09/08 01:49:24;;;;;;;7.60;6.90;;;14.60;66.20;;;;;;5025125;28;20492;-52
2023/09/08 01:51:51;;;;;;;10.20;8.00;;;14.60;67.60;;;;;;5036966;28;20486;-52
2023/09/08 01:54:17;;;;;;;9.37;7.10;;;14.60;65.20;;;;;;5028304;28;20542;-52
2023/09/08 01:56:44;;;;;;;8.10;7.30;;;14.60;64.80;;;;;;5026813;28;20545;-52
2023/09/08 01:59:10;;;;;;;8.00;7.30;;;14.60;63.60;;;;;;5030657;28;20518;-52
2023/09/08 02:01:38;;;;;;;15.23;6.77;;;14.60;62.40;;;;;;5026321;28;20550;-52
2023/09/08 02:04:05;;;;;;;10.40;6.90;;;14.50;62.40;;;;;;5024221;28;20509;-52
2023/09/08 02:06:32;;;;;;;8.80;7.10;;;14.50;60.50;;;;;;5026674;28;20490;-51
2023/09/08 02:08:58;;;;;;;8.63;7.47;;;14.60;59.10;;;;;;5025837;28;21074;-51
2023/09/08 02:11:25;;;;;;;9.53;6.97;;;14.50;61.20;;;;;;5030208;28;20479;-51
2023/09/08 02:13:53;;;;;;;11.63;7.03;;;14.50;57.70;;;;;;5032148;28;20545;-52
2023/09/08 02:16:19;;;;;;;7.70;6.93;;;14.50;57.70;;;;;;5026793;28;20508;-52
2023/09/08 02:18:47;;;;;;;7.70;6.90;;;14.50;57.80;;;;;;5026341;28;20510;-53
2023/09/08 02:21:14;;;;;;;6.93;6.20;;;14.50;55.80;;;;;;5029621;28;20873;-54
2023/09/08 02:23:40;;;;;;;9.20;6.90;;;14.50;54.50;;;;;;5027266;28;20558;-52
2023/09/08 02:26:07;;;;;;;7.53;6.90;;;14.50;53.60;;;;;;5030100;28;20451;-52
2023/09/08 02:28:33;;;;;;;16.77;7.87;;;14.50;51.70;;;;;;5029768;28;20537;-52
2023/09/08 02:31:00;;;;;;;7.70;7.00;;;14.50;53.20;;;;;;5030013;28;20494;-53
2023/09/08 02:33:26;;;;;;;8.30;7.50;;;14.50;54.50;;;;;;5031424;28;20447;-50
2023/09/08 02:35:54;;;;;;;8.33;6.93;;;14.50;53.80;;;;;;5028670;28;20466;-52
2023/09/08 02:38:21;;;;;;;15.90;7.90;;;14.50;52.20;;;;;;5026936;28;21067;-51
2023/09/08 02:40:47;;;;;;;14.50;7.83;;;14.50;51.20;;;;;;5029083;28;20485;-52
2023/09/08 02:43:14;;;;;;;8.73;6.30;;;14.50;52.70;;;;;;5028702;28;20486;-53
2023/09/08 02:45:40;;;;;;;10.20;7.77;;;14.50;52.80;;;;;;5029894;28;20465;-51
2023/09/08 02:48:07;;;;;;;14.40;7.60;;;14.50;51.40;;;;;;5032379;28;20585;-53
2023/09/08 02:50:34;;;;;;;8.20;7.37;;;14.60;52.70;;;;;;5028084;28;20497;-53
2023/09/08 02:53:02;;;;;;;7.43;6.57;;;14.60;53.70;;;;;;5025093;28;20487;-52
2023/09/08 02:55:29;;;;;;;8.30;7.50;;;14.50;52.50;;;;;;5026469;28;20457;-52
2023/09/08 02:57:56;;;;;;;7.50;6.80;;;14.50;55.20;;;;;;5028020;28;20859;-52
2023/09/08 03:00:23;;;;;;;9.23;7.27;;;14.50;55.50;;;;;;5033119;28;20549;-52
2023/09/08 03:02:49;;;;;;;9.53;7.93;;;14.50;54.90;;;;;;5032580;28;20506;-52
2023/09/08 03:05:16;;;;;;;8.03;7.27;;;14.40;56.80;;;;;;5034083;28;20498;-52
2023/09/08 03:07:42;;;;;;;11.07;8.20;;;14.40;58.20;;;;;;5033099;28;20517;-51
2023/09/08 03:10:11;;;;;;;12.13;8.80;;;14.40;55.40;;;;;;5028231;28;20462;-51
2023/09/08 03:12:38;;;;;;;10.00;7.50;;;14.30;56.80;;;;;;5030901;28;20541;-51
2023/09/08 03:15:05;;;;;;;9.80;7.60;;;14.30;56.90;;;;;;5033106;28;20489;-52
2023/09/08 03:17:32;;;;;;;8.90;7.60;;;14.30;54.70;;;;;;5032451;28;21538;-52
2023/09/08 03:19:58;;;;;;;9.63;7.23;;;14.30;53.80;;;;;;5033388;28;20573;-52
2023/09/08 03:22:25;;;;;;;8.27;7.33;;;14.30;54.20;;;;;;5034668;28;20477;-53
2023/09/08 03:24:52;;;;;;;9.57;7.70;;;14.20;54.80;;;;;;5034851;28;20814;-52
2023/09/08 03:27:20;;;;;;;9.20;7.13;;;14.20;54.00;;;;;;5025480;28;20474;-53
2023/09/08 03:29:46;;;;;;;7.60;6.90;;;14.20;50.70;;;;;;5032744;28;20513;-51
2023/09/08 03:32:13;;;;;;;10.40;7.30;;;14.20;50.50;;;;;;5033401;28;20497;-52
2023/09/08 03:34:40;;;;;;;8.43;7.63;;;14.20;51.80;;;;;;5034495;28;20481;-52
2023/09/08 03:37:06;;;;;;;9.63;8.20;;;14.20;52.30;;;;;;5033151;28;20463;-51
2023/09/08 03:39:33;;;;;;;12.60;8.00;;;14.20;51.10;;;;;;5031739;28;20895;-50
2023/09/08 03:41:59;;;;;;;15.70;7.30;;;14.20;51.30;;;;;;5032828;28;20489;-53
2023/09/08 03:44:28;;;;;;;10.57;8.50;;;14.10;49.90;;;;;;5029637;28;20541;-53
2023/09/08 03:46:54;;;;;;;10.23;8.87;;;14.20;50.00;;;;;;5044631;28;20472;-52
2023/09/08 03:49:21;;;;;;;10.20;8.50;;;14.10;48.50;;;;;;5037843;28;20517;-51
2023/09/08 03:51:47;;;;;;;7.60;6.90;;;14.10;47.70;;;;;;5032855;28;20912;-52
2023/09/08 03:54:14;;;;;;;11.30;8.63;;;14.10;45.10;;;;;;5033792;28;20481;-52
2023/09/08 03:56:40;;;;;;;8.03;7.23;;;14.10;47.00;;;;;;5027689;28;20589;-53
2023/09/08 03:59:07;;;;;;;8.27;7.33;;;14.00;45.80;;;;;;5027445;28;21076;-51
2023/09/08 04:01:35;;;;;;;9.70;7.40;;;14.00;45.80;;;;;;5030405;28;20459;-51
2023/09/08 04:04:01;;;;;;;8.80;7.17;;;14.00;46.10;;;;;;5034214;28;20494;-51
2023/09/08 04:06:28;;;;;;;12.87;7.60;;;14.00;44.80;;;;;;5031882;28;20473;-53
2023/09/08 04:08:54;;;;;;;9.13;7.30;;;13.90;44.40;;;;;;5031297;28;20538;-53
2023/09/08 04:11:21;;;;;;;10.47;8.00;;;13.90;43.30;;;;;;5027593;28;20545;-51
2023/09/08 04:13:48;;;;;;;9.13;8.23;;;13.90;43.60;;;;;;5031740;28;21039;-51
2023/09/08 04:16:14;;;;;;;9.10;7.50;;;13.90;43.30;;;;;;5028130;28;20486;-52
2023/09/08 04:18:42;;;;;;;8.47;7.67;;;13.90;42.10;;;;;;5031279;28;20470;-53
2023/09/08 04:21:09;;;;;;;8.70;7.80;;;13.90;38.90;;;;;;5025392;28;21025;-51
2023/09/08 04:23:35;;;;;;;8.27;7.47;;;13.90;40.20;;;;;;5029987;28;20504;-51
2023/09/08 04:26:02;;;;;;;8.63;7.73;;;13.90;39.10;;;;;;5032827;28;20494;-51
2023/09/08 04:28:29;;;;;;;10.33;7.83;;;13.90;37.80;;;;;;5035235;28;20867;-52
2023/09/08 04:30:55;;;;;;;8.27;7.47;;;13.90;37.70;;;;;;5035351;28;20967;-51
2023/09/08 04:33:22;;;;;;;11.60;7.10;;;14.00;36.60;;;;;;5027829;28;20545;-51
2023/09/08 04:35:49;;;;;;;8.53;7.63;;;14.00;38.60;;;;;;5035377;28;20521;-52
2023/09/08 04:38:16;;;;;;;8.00;7.30;;;13.90;40.30;;;;;;5037592;28;20912;-52
2023/09/08 04:40:42;;;;;;;9.23;8.23;;;14.00;41.10;;;;;;5037256;28;20487;-52
2023/09/08 04:43:09;;;;;;;9.83;7.10;;;14.00;38.10;;;;;;5032685;28;20484;-52
2023/09/08 04:45:36;;;;;;;13.23;8.47;;;14.00;38.70;;;;;;5035114;28;20489;-52
2023/09/08 04:48:02;;;;;;;7.67;6.97;;;14.00;39.70;;;;;;5022001;28;20497;-52
2023/09/08 04:50:29;;;;;;;13.73;7.50;;;14.00;40.80;;;;;;5030460;28;20473;-53
2023/09/08 04:52:57;;;;;;;8.53;7.73;;;14.10;38.80;;;;;;5030881;28;20470;-52
2023/09/08 04:55:24;;;;;;;8.53;7.73;;;14.00;40.10;;;;;;5030486;28;20564;-51
2023/09/08 04:57:50;;;;;;;9.30;8.30;;;14.10;40.50;;;;;;5030374;28;20516;-52
2023/09/08 05:00:18;;;;;;;10.83;7.60;;;14.10;39.70;;;;;;5033099;28;20582;-52
2023/09/08 05:02:44;;;;;;;11.37;8.90;;;14.10;40.70;;;;;;5029573;28;20498;-53
2023/09/08 05:05:11;;;;;;;11.60;7.60;;;14.10;39.00;;;;;;5025979;28;20462;-53
2023/09/08 05:07:37;;;;;;;8.97;7.40;;;14.20;38.30;;;;;;5029220;28;20478;-51
2023/09/08 05:10:06;;;;;;;8.77;7.80;;;14.10;39.30;;;;;;5031625;28;20513;-51
2023/09/08 05:12:33;;;;;;;12.43;7.70;;;14.20;35.80;;;;;;5031212;28;22014;-51
2023/09/08 05:15:06;;;;;;;9.73;8.47;;;14.20;36.60;;;;;;5029018;28;20499;-53
2023/09/08 05:17:32;;;;;;;9.67;8.23;;;14.30;35.30;;;;;;5029884;28;20462;-52
2023/09/08 05:19:59;;;;;;;13.03;8.60;;;14.40;34.90;;;;;;5030769;28;20533;-51
2023/09/08 05:22:25;;;;;;;9.50;8.10;;;14.40;35.30;;;;;;5029530;28;20558;-52
2023/09/08 05:24:52;;;;;;;11.03;8.40;;;14.50;35.00;;;;;;5040333;28;20528;-52
2023/09/08 05:27:20;;;;;;;9.43;8.53;;;14.60;36.00;;;;;;5029060;28;20975;-53
2023/09/08 05:29:46;;;;;;;13.77;8.40;;;14.60;38.70;;;;;;5032624;28;20581;-51
2023/09/08 05:32:13;;;;;;;19.60;8.90;;;14.60;37.30;;;;;;5026976;28;20550;-51
2023/09/08 05:34:40;;;;;;;19.10;8.73;;;14.70;37.50;;;;;;5029772;28;20532;-52
2023/09/08 05:37:06;;;;;;;21.63;9.27;;;14.80;38.70;;;;;;5023595;28;20498;-51
2023/09/08 05:39:33;;;;;;;13.67;8.70;;;14.80;37.10;;;;;;5036325;28;20569;-51
2023/09/08 05:41:59;;;;;;;12.90;8.37;;;14.80;36.50;;;;;;5032626;28;20545;-52
2023/09/08 05:44:27;;;;;;;11.43;8.63;;;14.90;33.30;;;;;;5035644;28;20549;-51
2023/09/08 05:46:54;;;;;;;10.87;8.90;;;15.00;33.70;;;;;;5037931;28;20494;-52
2023/09/08 05:49:20;;;;;;;13.30;9.43;;;15.10;33.50;;;;;;5049947;23;21253;-53
2023/09/08 05:51:47;;;;;;;12.50;9.20;;;15.20;33.90;;;;;;5016909;28;20993;-49
2023/09/08 05:54:14;;;;;;;13.77;9.83;;;15.50;34.80;;;;;;5012612;28;20522;-49
2023/09/08 05:56:40;;;;;;;13.60;9.47;;;15.60;37.10;;;;;;5008213;28;20551;-50
2023/09/08 05:59:07;;;;;;;14.13;9.53;;;15.80;45.00;;;;;;5005209;28;20491;-50
2023/09/08 06:01:35;;;;;;;12.17;9.10;;;15.90;49.00;;;;;;5014643;28;20470;-49
2023/09/08 06:04:02;;;;;;;13.37;9.60;;;16.10;52.50;;;;;;5017354;28;20458;-50
2023/09/08 06:06:30;;;;;;;12.03;10.27;;;16.20;57.20;;;;;;5010817;28;20542;-52
2023/09/08 06:08:57;;;;;;;11.90;9.87;;;16.40;64.80;;;;;;4992421;28;20470;-53
2023/09/08 06:11:24;;;;;;;11.87;9.53;;;16.50;73.50;;;;;;5000109;28;20503;-53
2023/09/08 06:13:52;;;;;;;13.07;8.87;;;16.70;83.00;;;;;;5010260;28;20475;-53
2023/09/08 06:16:18;;;;;;;13.63;9.20;;;16.90;94.30;;;;;;4997735;28;20464;-54
2023/09/08 06:18:46;;;;;;;16.30;10.90;;;17.00;95.20;;;;;;5010628;28;20487;-54
2023/09/08 06:21:13;;;;;;;12.90;8.97;;;17.20;99.90;;;;;;5014551;28;20519;-55
2023/09/08 06:23:39;;;;;;;15.53;9.93;;;17.20;99.90;;;;;;5011987;28;20466;-50
2023/09/08 06:26:06;;;;;;;11.43;10.33;;;17.30;99.90;;;;;;5014709;28;20460;-50
2023/09/08 06:28:32;;;;;;;11.50;10.07;;;17.30;99.90;;;;;;5012959;28;20901;-51
2023/09/08 06:31:00;;;;;;;15.43;8.93;;;17.40;99.90;;;;;;4998508;28;20930;-50
2023/09/08 06:33:26;;;;;;;25.07;9.40;;;17.60;99.90;;;;;;5013710;28;20491;-49
2023/09/08 06:35:54;;;;;;;18.77;9.93;;;17.70;99.90;;;;;;5007887;28;20503;-49
2023/09/08 06:38:21;;;;;;;21.63;10.70;;;17.80;99.90;;;;;;5013662;28;20459;-50
2023/09/08 06:40:49;;;;;;;22.10;10.17;;;17.90;99.90;;;;;;5017333;28;20488;-50
2023/09/08 06:43:15;;;;;;;12.53;9.60;;;17.90;99.90;;;;;;5015332;28;20465;-50
2023/09/08 06:45:42;;;;;;;20.50;9.37;;;18.00;99.90;;;;;;5023399;28;20496;-51
2023/09/08 06:48:08;;;;;;;13.63;9.43;;;18.10;99.90;;;;;;5017706;28;20524;-50
2023/09/08 06:50:35;;;;;;;10.40;8.47;;;18.10;99.90;;;;;;5018166;28;20515;-50
2023/09/08 06:53:03;;;;;;;23.23;9.03;;;18.20;99.90;;;;;;5009114;28;20471;-51
2023/09/08 06:55:30;;;;;;;13.53;10.13;;;18.20;99.90;;;;;;5013769;28;21023;-51
2023/09/08 06:57:57;;;;;;;14.17;9.77;;;18.30;99.90;;;;;;5007127;28;20463;-50
2023/09/08 07:00:24;;;;;;;13.33;8.73;;;18.40;99.90;;;;;;5008085;28;20952;-52
2023/09/08 07:02:51;;;;;;;11.10;8.80;;;18.50;99.90;;;;;;5002549;28;20492;-51
2023/09/08 07:05:18;;;;;;;12.80;9.20;;;18.70;99.90;;;;;;5006148;28;20474;-53
2023/09/08 07:07:44;;;;;;;22.73;9.63;;;18.80;99.90;;;;;;5008259;28;20835;-51
2023/09/08 07:10:13;;;;;;;31.60;9.00;;;18.80;99.90;;;;;;5013440;28;20487;-51
2023/09/08 07:12:40;;;;;;;16.77;8.80;;;18.90;99.90;;;;;;5000543;28;20914;-50
2023/09/08 07:15:08;;;;;;;17.23;9.67;;;19.00;99.90;;;;;;5008714;28;20969;-51
2023/09/08 07:17:34;;;;;;;11.77;8.67;;;19.00;99.90;;;;;;5014517;28;20459;-51
2023/09/08 07:20:01;;;;;;;13.67;9.30;;;19.10;99.90;;;;;;5010338;28;20511;-50
2023/09/08 07:22:28;;;;;;;15.10;8.30;;;19.20;99.90;;;;;;5008194;28;20466;-50
2023/09/08 07:24:54;;;;;;;10.33;9.23;;;19.30;99.90;;;;;;5004757;28;20467;-50
2023/09/08 07:27:22;;;;;;;10.50;8.43;;;19.40;99.90;;;;;;5010381;28;20484;-51
2023/09/08 07:29:49;;;;;;;9.80;8.80;;;19.60;99.90;;;;;;5008968;28;21016;-51
2023/09/08 07:32:16;;;;;;;13.43;8.77;;;19.60;99.90;;;;;;5005298;28;20471;-50
2023/09/08 07:34:42;;;;;;;9.10;7.73;;;19.80;99.90;;;;;;5007497;28;20460;-51
2023/09/08 07:37:09;;;;;;;10.67;8.50;;;19.90;99.90;;;;;;5009265;28;20491;-50
2023/09/08 07:39:36;;;;;;;13.10;8.83;;;20.00;99.90;;;;;;5009682;28;21284;-50
2023/09/08 07:42:02;;;;;;;17.00;8.80;;;20.10;99.90;;;;;;5011562;28;20463;-51
2023/09/08 07:44:30;;;;;;;14.43;9.23;;;20.30;99.90;;;;;;5006150;28;20500;-51
2023/09/08 07:46:57;;;;;;;9.40;8.47;;;20.40;73.70;;;;;;5007472;28;20505;-51
2023/09/08 07:49:24;;;;;;;10.47;8.00;;;20.50;36.10;;;;;;5015541;28;20487;-51
2023/09/08 07:51:51;;;;;;;10.20;8.80;;;20.60;35.80;;;;;;5005865;28;20495;-51
2023/09/08 07:54:17;;;;;;;10.10;9.03;;;20.70;32.20;;;;;;5016645;28;20490;-52
2023/09/08 07:56:44;;;;;;;15.40;7.90;;;20.80;46.80;;;;;;5017729;28;20483;-50
2023/09/08 07:59:11;;;;;;;12.63;8.47;;;20.90;53.40;;;;;;5010510;28;20561;-52
2023/09/08 08:01:39;;;;;;;15.47;8.67;;;21.00;48.50;;;;;;5017940;28;20503;-52
2023/09/08 08:04:05;;;;;;;14.67;8.40;;;21.10;58.00;;;;;;5017184;28;20463;-51
2023/09/08 08:06:32;;;;;;;9.30;8.20;;;21.20;77.40;;;;;;5011449;28;20563;-50
2023/09/08 08:08:58;;;;;;;14.17;8.70;;;21.40;76.20;;;;;;5009954;28;21340;-50
2023/09/08 08:11:26;;;;;;;16.83;8.50;;;21.80;79.30;;;;;;5027019;28;20546;-51
2023/09/08 08:13:52;;;;;;;10.23;7.57;;;22.30;94.40;;;;;;5024312;28;20516;-51
2023/09/08 08:16:21;;;;;;;18.47;9.47;;;22.50;99.10;;;;;;5023466;28;20520;-51
2023/09/08 08:18:49;;;;;;;12.63;8.13;;;22.40;99.90;;;;;;5019923;28;20553;-50
2023/09/08 08:21:15;;;;;;;12.70;7.77;;;22.50;98.00;;;;;;5007962;28;20484;-50
2023/09/08 08:23:42;;;;;;;9.27;7.20;;;22.50;98.20;;;;;;5028436;28;20538;-51
2023/09/08 08:26:09;;;;;;;20.17;7.83;;;22.50;99.10;;;;;;5016541;28;20487;-50
2023/09/08 08:28:35;;;;;;;13.00;7.43;;;22.50;96.90;;;;;;5023720;28;20957;-51
2023/09/08 08:31:02;;;;;;;13.43;8.03;;;22.60;99.50;;;;;;5012012;28;20523;-50
2023/09/08 08:33:29;;;;;;;13.83;7.63;;;22.70;99.10;;;;;;5008576;28;20462;-51
2023/09/08 08:35:57;;;;;;;14.00;8.27;;;22.70;99.90;;;;;;5017952;28;20469;-54
2023/09/08 08:38:23;;;;;;;8.77;6.97;;;22.80;99.90;;;;;;5019934;28;20503;-50
2023/09/08 08:40:50;;;;;;;10.40;7.10;;;22.90;99.90;;;;;;5011006;28;20484;-52
2023/09/08 08:43:17;;;;;;;14.60;7.77;;;23.00;99.90;;;;;;5015452;28;20550;-50
2023/09/08 08:45:44;;;;;;;10.27;7.10;;;23.20;99.90;;;;;;5008422;28;20989;-51
2023/09/08 08:48:14;;;;;;;12.97;7.07;;;23.30;99.90;;;;;;5012808;28;20907;-50
2023/09/08 08:50:43;;;;;;;14.60;7.20;;;23.50;99.90;;;;;;5030376;28;20636;-51
2023/09/08 08:53:12;;;;;;;10.63;7.60;;;23.60;99.90;;;;;;5027691;28;20501;-51
2023/09/08 08:55:39;;;;;;;19.57;7.60;;;23.80;99.90;;;;;;5014619;28;20460;-50
2023/09/08 08:58:06;;;;;;;8.23;7.20;;;24.00;99.90;;;;;;5017730;28;20483;-51
2023/09/08 09:00:36;;;;;;;10.87;7.40;;;24.20;99.90;;;;;;5010427;28;20475;-51
2023/09/08 09:03:05;;;;;;;10.57;7.40;;;24.50;99.90;;;;;;5008882;28;20463;-50
2023/09/08 09:05:32;;;;;;;12.20;6.77;;;24.70;99.90;;;;;;5012384;28;20464;-51
2023/09/08 09:08:03;;;;;;;19.13;7.60;;;24.90;99.90;;;;;;5020681;28;20486;-51
2023/09/08 09:10:31;;;;;;;9.10;6.77;;;24.80;99.90;;;;;;5013070;28;20486;-51
2023/09/08 09:12:58;;;;;;;12.93;7.20;;;24.90;99.90;;;;;;5009086;28;20467;-51
2023/09/08 09:15:30;;;;;;;10.87;7.27;;;25.10;99.90;;;;;;5011483;28;20546;-51
2023/09/08 09:18:04;;;;;;;13.53;6.20;;;25.20;99.90;;;;;;5011445;28;20553;-50
2023/09/08 09:20:30;;;;;;;26.33;7.00;;;25.20;99.90;;;;;;5025600;28;20879;-50
2023/09/08 09:22:57;;;;;;;10.30;7.30;;;25.20;99.90;;;;;;5019633;28;20502;-51
2023/09/08 09:25:23;;;;;;;9.53;7.00;;;25.40;99.90;;;;;;5022171;28;20534;-51
2023/09/08 09:27:53;;;;;;;10.70;7.53;;;25.30;99.90;;;;;;5011756;28;20455;-50
2023/09/08 09:30:20;;;;;;;11.80;6.40;;;25.20;99.90;;;;;;5008205;28;20488;-51
2023/09/08 09:32:49;;;;;;;11.57;8.00;;;25.40;99.90;;;;;;5010587;28;20574;-50
2023/09/08 09:35:15;;;;;;;7.87;6.60;;;25.50;99.90;;;;;;5010037;28;20558;-50
2023/09/08 09:37:42;;;;;;;11.27;6.30;;;25.50;99.90;;;;;;5010230;28;20503;-50
2023/09/08 09:40:11;;;;;;;16.03;6.07;;;25.70;99.90;;;;;;5011067;28;21088;-50
2023/09/08 09:42:39;;;;;;;12.60;7.30;;;25.80;99.90;;;;;;5011555;28;20463;-52
2023/09/08 09:45:08;;;;;;;17.13;6.10;;;25.80;99.90;;;;;;5017304;28;20519;-55
2023/09/08 09:47:35;;;;;;;13.00;6.07;;;25.90;99.90;;;;;;5015623;28;20460;-54
2023/09/08 09:50:02;;;;;;;11.43;6.67;;;26.10;99.90;;;;;;5012636;28;20570;-56
2023/09/08 09:52:31;;;;;;;11.53;6.37;;;26.20;99.90;;;;;;5009570;28;20456;-55
2023/09/08 09:54:59;;;;;;;7.60;6.00;;;26.30;99.90;;;;;;5009140;28;20567;-54
2023/09/08 09:57:26;;;;;;;6.13;5.53;;;26.50;99.90;;;;;;5012230;28;20949;-55
2023/09/08 09:59:54;;;;;;;8.07;6.00;;;26.60;99.90;;;;;;5008209;28;20618;-55
2023/09/08 10:02:22;;;;;;;13.80;6.53;;;26.90;99.90;;;;;;5009417;28;20538;-55
2023/09/08 10:04:50;;;;;;;9.13;6.00;;;27.10;99.90;;;;;;5008073;28;20487;-55
2023/09/08 10:07:18;;;;;;;13.80;6.30;;;27.10;99.90;;;;;;5009562;28;20498;-53
2023/09/08 10:09:44;;;;;;;12.33;6.20;;;27.40;99.90;;;;;;5020479;28;20478;-56
2023/09/08 10:12:16;;;;;;;6.07;5.43;;;28.20;99.90;;;;;;5018996;28;20511;-55
2023/09/08 10:14:43;;;;;;;8.30;6.00;;;29.00;99.90;;;;;;5012636;28;20466;-55
2023/09/08 10:17:15;;;;;;;9.40;5.60;;;29.70;99.90;;;;;;5017765;28;20541;-55
2023/09/08 10:19:51;;;;;;;6.47;5.80;;;30.90;99.90;;;;;;5008587;28;20507;-54
2023/09/08 10:22:22;;;;;;;8.20;6.27;;;31.20;99.90;;;;;;5016006;28;20455;-54
2023/09/08 10:24:50;;;;;;;18.87;5.33;;;31.20;99.90;;;;;;5013021;28;20878;-54
2023/09/08 10:27:20;;;;;;;12.80;5.57;;;29.40;99.90;;;;;;5010040;28;20914;-56
2023/09/08 10:29:47;;;;;;;10.93;6.13;;;30.20;99.90;;;;;;5012754;28;20475;-51
2023/09/08 10:32:14;;;;;;;7.23;6.13;;;30.20;99.90;;;;;;5027752;28;20530;-54
2023/09/08 10:34:44;;;;;;;10.60;5.63;;;29.80;99.90;;;;;;5008728;28;20668;-57
2023/09/08 10:37:21;;;;;;;12.23;5.37;;;30.60;99.90;;;;;;5012969;28;20486;-55
2023/09/08 10:39:47;;;;;;;8.70;4.83;;;31.10;99.90;;;;;;5017043;28;20603;-55
2023/09/08 10:42:22;;;;;;;33.13;6.20;;;31.00;99.90;;;;;;5005393;28;20457;-55
2023/09/08 10:44:58;;;;;;;7.57;5.10;;;30.00;99.90;;;;;;5009952;28;20468;-55
2023/09/08 10:47:26;;;;;;;7.63;5.90;;;31.20;99.90;;;;;;5009519;28;20542;-55
2023/09/08 10:49:57;;;;;;;8.70;4.60;;;31.00;99.90;;;;;;5011342;28;20498;-54
2023/09/08 10:52:24;;;;;;;6.30;5.07;;;30.60;99.90;;;;;;5008302;28;20451;-54
2023/09/08 10:54:52;;;;;;;9.53;5.90;;;30.40;99.90;;;;;;5023979;28;20474;-55
2023/09/08 10:57:22;;;;;;;5.47;4.93;;;30.20;99.90;;;;;;5012966;28;20490;-55
2023/09/08 10:59:52;;;;;;;11.20;5.80;;;30.60;99.90;;;;;;5013974;28;20991;-55
2023/09/08 11:02:36;;;;;;;5.30;4.80;;;30.30;99.90;;;;;;5016475;28;20918;-55
2023/09/08 11:05:07;;;;;;;7.53;5.10;;;30.10;99.90;;;;;;5021590;28;20464;-54
2023/09/08 11:07:33;;;;;;;5.40;4.70;;;30.30;99.90;;;;;;5028293;28;20459;-53
2023/09/08 11:10:01;;;;;;;10.70;5.03;;;29.80;99.90;;;;;;5015331;28;20534;-55
2023/09/08 11:12:28;;;;;;;5.20;4.77;;;29.60;99.90;;;;;;5008603;28;21008;-54
2023/09/08 11:14:55;;;;;;;11.13;6.27;;;29.80;99.90;;;;;;5009533;28;20468;-54
2023/09/08 11:17:21;;;;;;;7.90;4.67;;;29.80;99.90;;;;;;5010347;28;20957;-53
2023/09/08 11:19:49;;;;;;;10.77;5.43;;;29.30;99.90;;;;;;5013103;28;20512;-54
2023/09/08 11:22:18;;;;;;;12.80;4.90;;;29.10;99.90;;;;;;5008473;28;20545;-54
2023/09/08 11:24:45;;;;;;;11.00;4.70;;;29.00;99.90;;;;;;5014942;28;20550;-55
2023/09/08 11:27:12;;;;;;;9.53;5.73;;;28.90;99.90;;;;;;5013630;28;20495;-54
2023/09/08 11:29:42;;;;;;;6.10;4.80;;;28.90;99.90;;;;;;5012616;28;20557;-55
2023/09/08 11:32:09;;;;;;;5.03;4.53;;;28.90;99.90;;;;;;5028624;28;20525;-51
2023/09/08 11:34:36;;;;;;;6.87;4.37;;;28.70;99.90;;;;;;5024477;28;20494;-51
2023/09/08 11:37:08;;;;;;;22.97;4.53;;;28.50;99.90;;;;;;5011192;28;20460;-50
2023/09/08 11:39:39;;;;;;;9.43;4.47;;;28.40;99.90;;;;;;5017232;28;20483;-50
2023/09/08 11:42:06;;;;;;;6.43;4.33;;;28.40;99.90;;;;;;5013330;28;20490;-50
2023/09/08 11:44:33;;;;;;;7.30;4.83;;;28.40;99.90;;;;;;5018497;28;20490;-51
2023/09/08 11:47:00;;;;;;;11.83;4.50;;;28.50;99.90;;;;;;5017289;28;20466;-54
2023/09/08 11:49:26;;;;;;;8.73;4.40;;;28.60;99.90;;;;;;5025433;28;20549;-53
2023/09/08 11:51:53;;;;;;;10.70;5.33;;;29.20;99.90;;;;;;5009894;28;20486;-54
2023/09/08 11:54:19;;;;;;;5.20;4.70;;;29.30;99.90;;;;;;5017062;28;20537;-55
2023/09/08 11:56:47;;;;;;;5.70;4.50;;;29.10;99.90;;;;;;5009302;28;20461;-55
2023/09/08 11:59:14;;;;;;;11.90;4.60;;;29.10;99.90;;;;;;5019388;28;20561;-50
2023/09/08 12:01:41;;;;;;;5.20;4.70;;;29.10;99.90;;;;;;5011851;28;21033;-51
2023/09/08 12:04:17;;;;;;;6.20;4.43;;;29.10;99.90;;;;;;5011142;28;20574;-51
2023/09/08 12:06:43;;;;;;;7.10;4.33;;;29.00;99.90;;;;;;5015602;28;20491;-50
2023/09/08 12:09:10;;;;;;;8.27;4.10;;;29.10;99.90;;;;;;5018446;28;20973;-54
2023/09/08 12:11:41;;;;;;;12.30;5.53;;;29.30;99.90;;;;;;5016088;28;20566;-54
2023/09/08 12:14:10;;;;;;;6.27;4.13;;;29.30;99.90;;;;;;5011781;28;21003;-54
2023/09/08 12:16:37;;;;;;;9.13;4.63;;;29.40;99.90;;;;;;5014365;28;20479;-55
2023/09/08 12:19:04;;;;;;;4.60;4.10;;;29.20;99.90;;;;;;5015278;28;20491;-54
2023/09/08 12:21:31;;;;;;;6.30;4.63;;;29.20;99.90;;;;;;5010930;28;20455;-54
2023/09/08 12:23:58;;;;;;;7.70;4.00;;;29.30;99.90;;;;;;5018078;28;20551;-51
2023/09/08 12:26:25;;;;;;;7.60;4.43;;;29.50;99.90;;;;;;5022043;28;20499;-51
2023/09/08 12:28:52;;;;;;;10.50;4.67;;;30.50;99.90;;;;;;5022954;28;20525;-51
2023/09/08 12:31:21;;;;;;;5.50;4.40;;;31.10;99.90;;;;;;5020460;28;20907;-51
2023/09/08 12:33:47;;;;;;;5.50;4.20;;;31.20;99.90;;;;;;5013572;28;20820;-50
2023/09/08 12:36:15;;;;;;;8.83;4.30;;;31.80;99.90;;;;;;5024174;28;20496;-50
2023/09/08 12:38:41;;;;;;;9.07;4.07;;;31.80;99.90;;;;;;5019051;28;20495;-50
2023/09/08 12:41:08;;;;;;;4.60;4.30;;;31.30;99.90;;;;;;5011076;28;20481;-51